createdAt,value
2019-03-29T00:03:20.205Z,14.71
2019-03-29T00:07:39.069Z,14.62
2019-03-29T00:11:33.540Z,14.51
2019-03-29T00:15:39.249Z,14.38
2019-03-29T00:19:46.208Z,14.27
2019-03-29T00:24:05.905Z,14.21
2019-03-29T00:27:59.263Z,14.26
2019-03-29T00:32:05.937Z,14.14
2019-03-29T00:36:11.730Z,14.14
2019-03-29T00:40:17.484Z,14.09
2019-03-29T00:44:23.163Z,14.05
2019-03-29T00:48:28.910Z,14.05
2019-03-29T00:52:34.605Z,14.06
2019-03-29T00:56:40.302Z,14.06
2019-03-29T01:00:45.986Z,14.15
2019-03-29T01:04:53.363Z,14.27
2019-03-29T01:08:59.102Z,14.33
2019-03-29T01:13:04.828Z,14.35
2019-03-29T01:21:27.801Z,14.38
2019-03-29T01:25:35.104Z,14.34
2019-03-29T01:29:40.986Z,14.34
2019-03-29T01:33:46.694Z,14.35
2019-03-29T01:37:52.390Z,14.41
2019-03-29T01:41:59.038Z,14.37
2019-03-29T01:46:07.688Z,14.38
2019-03-29T01:50:13.619Z,14.40
2019-03-29T01:54:19.317Z,14.38
2019-03-29T01:58:26.163Z,14.32
2019-03-29T02:02:31.868Z,14.16
2019-03-29T02:06:37.584Z,14.06
2019-03-29T02:10:43.269Z,13.96
2019-03-29T02:14:48.954Z,13.90
2019-03-29T02:18:54.768Z,13.94
2019-03-29T02:23:00.464Z,13.90
2019-03-29T02:27:06.157Z,13.89
2019-03-29T02:31:11.885Z,13.90
2019-03-29T02:35:17.759Z,13.90
2019-03-29T02:39:23.392Z,13.90
2019-03-29T02:43:29.089Z,13.91
2019-03-29T02:47:34.802Z,13.97
2019-03-29T02:51:40.496Z,14.02
2019-03-29T02:55:46.208Z,13.91
2019-03-29T02:59:52.084Z,13.77
2019-03-29T03:03:57.783Z,13.66
2019-03-29T03:08:03.498Z,13.69
2019-03-29T03:12:09.209Z,13.70
2019-03-29T03:16:15.002Z,13.75
2019-03-29T03:20:20.971Z,13.77
2019-03-29T03:24:26.774Z,13.72
2019-03-29T03:28:32.537Z,13.57
2019-03-29T03:32:38.250Z,13.49
2019-03-29T03:36:44.136Z,13.46
2019-03-29T03:40:49.816Z,13.44
2019-03-29T03:44:55.566Z,13.42
2019-03-29T03:49:01.310Z,13.45
2019-03-29T03:53:07.302Z,13.43
2019-03-29T03:57:13.680Z,13.40
2019-03-29T04:01:19.375Z,13.42
2019-03-29T04:05:25.051Z,13.45
2019-03-29T04:09:48.026Z,13.52
2019-03-29T04:13:38.222Z,13.33
2019-03-29T04:17:43.912Z,13.33
2019-03-29T04:21:49.597Z,13.26
2019-03-29T04:25:55.293Z,13.25
2019-03-29T04:30:00.979Z,13.25
2019-03-29T04:34:06.730Z,13.28
2019-03-29T04:38:12.422Z,13.25
2019-03-29T04:42:18.126Z,13.22
2019-03-29T04:46:23.818Z,13.19
2019-03-29T04:50:29.544Z,13.12
2019-03-29T04:54:35.238Z,13.14
2019-03-29T04:58:40.926Z,13.07
2019-03-29T05:02:46.704Z,13.13
2019-03-29T05:06:52.467Z,13.11
2019-03-29T05:10:58.159Z,13.04
2019-03-29T05:15:04.493Z,13.06
2019-03-29T05:19:10.175Z,13.02
2019-03-29T05:23:15.870Z,13.01
2019-03-29T05:27:21.646Z,13.06
2019-03-29T05:31:27.355Z,12.98
2019-03-29T05:35:33.030Z,12.90
2019-03-29T05:39:38.718Z,12.96
2019-03-29T05:43:44.419Z,12.94
2019-03-29T05:47:50.107Z,12.91
2019-03-29T05:51:55.809Z,12.96
2019-03-29T05:56:01.727Z,12.99
2019-03-29T06:00:12.931Z,13.09
2019-03-29T06:04:18.631Z,13.14
2019-03-29T06:08:24.328Z,13.08
2019-03-29T06:12:30.030Z,13.07
2019-03-29T06:16:39.126Z,13.02
2019-03-29T06:20:43.098Z,12.97
2019-03-29T06:24:48.800Z,12.91
2019-03-29T06:28:54.499Z,12.94
2019-03-29T06:33:00.285Z,13.02
2019-03-29T06:37:06.510Z,13.33
2019-03-29T06:41:12.204Z,13.79
2019-03-29T06:45:17.924Z,14.26
2019-03-29T06:49:23.717Z,14.60
2019-03-29T06:53:29.418Z,14.89
2019-03-29T06:57:35.112Z,15.20
2019-03-29T07:01:40.834Z,15.37
2019-03-29T07:05:46.538Z,15.63
2019-03-29T07:09:53.737Z,15.83
2019-03-29T07:13:59.502Z,16.16
2019-03-29T07:18:05.298Z,16.47
2019-03-29T07:22:10.988Z,16.63
2019-03-29T07:26:16.774Z,16.96
2019-03-29T07:30:22.641Z,17.27
2019-03-29T07:34:28.338Z,17.45
2019-03-29T07:38:34.033Z,17.92
2019-03-29T07:42:39.811Z,18.26
2019-03-29T07:46:45.583Z,18.70
2019-03-29T07:50:51.303Z,18.93
2019-03-29T07:54:57.066Z,19.26
2019-03-29T07:59:02.760Z,19.63
2019-03-29T08:03:08.460Z,19.35
2019-03-29T08:07:26.558Z,19.58
2019-03-29T08:11:26.322Z,19.90
2019-03-29T08:15:29.020Z,20.39
2019-03-29T08:19:37.228Z,20.81
2019-03-29T08:23:42.180Z,20.70
2019-03-29T08:27:47.872Z,20.86
2019-03-29T08:31:55.481Z,21.33
2019-03-29T08:36:01.952Z,21.60
2019-03-29T08:40:08.471Z,21.99
2019-03-29T08:44:14.940Z,21.85
2019-03-29T08:48:20.656Z,21.95
2019-03-29T08:52:26.357Z,22.91
2019-03-29T08:56:32.039Z,23.67
2019-03-29T09:00:37.774Z,24.34
2019-03-29T09:04:43.911Z,24.86
2019-03-29T09:08:49.947Z,25.35
2019-03-29T09:12:55.671Z,25.92
2019-03-29T09:17:01.357Z,25.69
2019-03-29T09:21:07.116Z,25.45
2019-03-29T09:25:13.045Z,26.24
2019-03-29T09:29:18.792Z,25.40
2019-03-29T09:33:24.474Z,23.48
2019-03-29T09:37:30.241Z,23.06
2019-03-29T09:41:35.943Z,23.85
2019-03-29T09:45:42.282Z,24.56
2019-03-29T09:49:47.971Z,26.31
2019-03-29T09:53:53.719Z,26.06
2019-03-29T09:58:01.378Z,27.20
2019-03-29T10:02:07.232Z,27.86
2019-03-29T10:06:15.328Z,28.49
2019-03-29T10:10:20.572Z,29.05
2019-03-29T10:14:26.317Z,29.50
2019-03-29T10:18:32.086Z,29.65
2019-03-29T10:22:37.784Z,29.75
2019-03-29T10:26:43.524Z,29.10
2019-03-29T10:30:49.198Z,30.06
2019-03-29T10:34:54.895Z,30.63
2019-03-29T10:39:00.609Z,31.30
2019-03-29T10:43:06.594Z,30.26
2019-03-29T10:47:12.295Z,30.23
2019-03-29T10:51:17.988Z,31.72
2019-03-29T10:55:23.700Z,32.11
2019-03-29T10:59:31.040Z,32.50
2019-03-29T11:03:38.670Z,30.03
2019-03-29T11:07:44.354Z,29.28
2019-03-29T11:11:50.081Z,27.68
2019-03-29T11:15:55.833Z,29.59
2019-03-29T11:20:01.532Z,31.42
2019-03-29T11:24:09.313Z,30.72
2019-03-29T11:28:18.314Z,30.55
2019-03-29T11:32:25.074Z,30.48
2019-03-29T11:36:30.773Z,30.73
2019-03-29T11:40:36.478Z,31.10
2019-03-29T11:44:42.237Z,32.49
2019-03-29T11:48:47.938Z,33.08
2019-03-29T11:52:53.643Z,33.36
2019-03-29T11:56:59.612Z,32.62
2019-03-29T12:01:05.640Z,31.88
2019-03-29T12:05:11.766Z,30.63
2019-03-29T12:09:17.740Z,30.09
2019-03-29T12:13:23.570Z,28.89
2019-03-29T12:17:29.363Z,26.63
2019-03-29T12:21:36.031Z,27.02
2019-03-29T12:25:41.740Z,27.35
2019-03-29T12:29:47.526Z,26.99
2019-03-29T12:33:53.296Z,25.95
2019-03-29T12:37:59.064Z,26.19
2019-03-29T12:42:04.824Z,25.89
2019-03-29T12:46:10.591Z,24.66
2019-03-29T12:50:16.356Z,25.10
2019-03-29T12:54:22.023Z,25.44
2019-03-29T12:58:27.810Z,26.07
2019-03-29T13:02:34.674Z,26.96
2019-03-29T13:06:40.596Z,27.88
2019-03-29T13:10:46.504Z,28.28
2019-03-29T13:14:52.164Z,28.73
2019-03-29T13:18:57.873Z,28.36
2019-03-29T13:23:03.710Z,28.00
2019-03-29T13:27:09.546Z,27.35
2019-03-29T13:31:15.717Z,28.70
2019-03-29T13:35:21.496Z,29.29
2019-03-29T13:39:27.190Z,29.78
2019-03-29T13:43:32.896Z,30.26
2019-03-29T13:47:38.984Z,30.74
2019-03-29T13:51:44.693Z,31.23
2019-03-29T13:55:50.389Z,31.54
2019-03-29T13:59:56.080Z,30.88
2019-03-29T14:04:03.316Z,31.28
2019-03-29T14:08:09.016Z,31.01
2019-03-29T14:12:14.738Z,30.12
2019-03-29T14:16:20.508Z,29.65
2019-03-29T14:20:44.458Z,29.92
2019-03-29T14:24:50.154Z,29.60
2019-03-29T14:28:55.853Z,29.13
2019-03-29T14:33:01.588Z,28.72
2019-03-29T14:37:07.277Z,28.53
2019-03-29T14:41:13.100Z,28.72
2019-03-29T14:45:19.024Z,28.75
2019-03-29T14:49:24.737Z,28.28
2019-03-29T14:53:30.449Z,27.95
2019-03-29T14:57:37.108Z,27.86
2019-03-29T15:01:42.885Z,27.38
2019-03-29T15:05:48.749Z,27.25
2019-03-29T15:09:55.567Z,27.39
2019-03-29T15:14:01.274Z,27.30
2019-03-29T15:18:07.999Z,26.58
2019-03-29T15:22:13.699Z,25.67
2019-03-29T15:26:19.414Z,25.10
2019-03-29T15:30:25.134Z,24.75
2019-03-29T15:34:30.825Z,24.19
2019-03-29T15:38:36.514Z,23.76
2019-03-29T15:42:42.279Z,23.34
2019-03-29T15:46:47.982Z,23.03
2019-03-29T15:50:53.698Z,23.03
2019-03-29T15:54:59.546Z,22.76
2019-03-29T15:59:05.301Z,22.92
2019-03-29T16:03:12.498Z,22.84
2019-03-29T16:07:18.177Z,23.05
2019-03-29T16:11:23.886Z,23.11
2019-03-29T16:15:36.518Z,23.06
2019-03-29T16:19:37.091Z,23.00
2019-03-29T16:23:42.851Z,22.75
2019-03-29T16:27:48.612Z,22.61
2019-03-29T16:31:54.309Z,22.09
2019-03-29T16:36:00.016Z,21.91
2019-03-29T16:40:08.435Z,21.76
2019-03-29T16:44:14.146Z,21.69
2019-03-29T16:48:19.839Z,21.59
2019-03-29T16:52:25.555Z,21.45
2019-03-29T16:56:31.326Z,21.27
2019-03-29T17:00:37.039Z,21.15
2019-03-29T17:04:42.818Z,21.05
2019-03-29T17:08:48.508Z,20.92
2019-03-29T17:12:54.215Z,20.77
2019-03-29T17:16:59.965Z,20.62
2019-03-29T17:21:05.858Z,20.48
2019-03-29T17:25:11.882Z,20.46
2019-03-29T17:29:17.587Z,20.40
2019-03-29T17:33:32.160Z,20.29
2019-03-29T17:37:37.919Z,20.19
2019-03-29T17:41:43.625Z,20.07
2019-03-29T17:45:49.419Z,19.98
2019-03-29T17:49:55.255Z,19.93
2019-03-29T17:54:00.950Z,19.86
2019-03-29T17:58:07.720Z,19.70
2019-03-29T18:02:13.587Z,19.73
2019-03-29T18:06:19.317Z,19.71
2019-03-29T18:10:25.079Z,19.64
2019-03-29T18:14:30.939Z,19.56
2019-03-29T18:18:37.619Z,19.51
2019-03-29T18:22:43.334Z,19.46
2019-03-29T18:26:49.047Z,19.39
2019-03-29T18:36:23.387Z,19.15
2019-03-29T18:40:29.404Z,18.98
2019-03-29T18:44:35.267Z,18.93
2019-03-29T18:48:40.985Z,18.90
2019-03-29T18:52:46.687Z,18.82
2019-03-29T18:56:52.570Z,18.67
2019-03-29T19:00:58.293Z,18.63
2019-03-29T19:05:04.673Z,18.54
2019-03-29T19:09:10.606Z,18.52
2019-03-29T19:13:16.367Z,18.41
2019-03-29T19:17:22.065Z,18.25
2019-03-29T19:21:27.835Z,18.14
2019-03-29T19:25:33.545Z,18.13
2019-03-29T19:29:39.236Z,18.15
2019-03-29T19:33:44.933Z,18.13
2019-03-29T19:37:50.635Z,18.15
2019-03-29T19:41:56.331Z,18.05
2019-03-29T19:46:02.047Z,17.99
2019-03-29T19:50:08.871Z,17.98
2019-03-29T19:54:14.589Z,17.75
2019-03-29T19:58:20.383Z,17.65
2019-03-29T20:02:26.085Z,17.60
2019-03-29T20:06:31.780Z,17.57
2019-03-29T20:10:37.561Z,17.46
2019-03-29T20:14:43.323Z,17.40
2019-03-29T20:18:49.000Z,17.33
2019-03-29T20:22:57.139Z,17.29
2019-03-29T20:27:02.843Z,17.08
2019-03-29T20:31:08.579Z,17.09
2019-03-29T20:35:14.339Z,16.93
2019-03-29T20:39:20.111Z,17.02
2019-03-29T20:43:25.822Z,16.99
2019-03-29T20:47:42.106Z,16.87
2019-03-29T20:51:38.996Z,16.79
2019-03-29T20:55:45.658Z,16.82
2019-03-29T20:59:51.375Z,16.90
2019-03-29T21:03:57.090Z,16.82
2019-03-29T21:08:02.952Z,16.88
2019-03-29T21:12:08.703Z,16.79
2019-03-29T21:16:14.502Z,16.76
2019-03-29T21:20:20.319Z,16.67
2019-03-29T21:24:25.981Z,16.74
2019-03-29T21:28:34.903Z,16.73
2019-03-29T21:32:39.243Z,16.76
2019-03-29T21:36:45.031Z,16.68
2019-03-29T21:40:50.833Z,16.64
2019-03-29T21:44:56.534Z,16.56
2019-03-29T21:49:02.225Z,16.60
2019-03-29T21:53:07.924Z,16.54
2019-03-29T21:57:13.669Z,16.44
2019-03-29T22:01:20.499Z,16.33
2019-03-29T22:05:26.265Z,16.11
2019-03-29T22:09:37.198Z,16.09
2019-03-29T22:13:39.361Z,15.95
2019-03-29T22:17:45.147Z,15.91
2019-03-29T22:21:50.935Z,15.92
2019-03-29T22:25:56.709Z,15.94
2019-03-29T22:30:04.961Z,15.81
2019-03-29T22:34:10.643Z,15.62
2019-03-29T22:38:16.363Z,15.48
2019-03-29T22:42:23.172Z,15.36
2019-03-29T22:46:28.883Z,15.31
2019-03-29T22:50:34.694Z,15.37
2019-03-29T22:54:40.438Z,15.46
2019-03-29T22:58:46.161Z,15.41
2019-03-29T23:02:52.107Z,15.44
2019-03-29T23:06:57.849Z,15.46
2019-03-29T23:11:03.852Z,15.42
2019-03-29T23:15:11.765Z,15.08
2019-03-29T23:19:17.542Z,14.93
2019-03-29T23:23:23.277Z,15.04
2019-03-29T23:27:29.955Z,15.11
2019-03-29T23:32:18.284Z,15.16
2019-03-29T23:42:18.795Z,15.05
2019-03-29T23:47:16.182Z,14.88
2019-03-29T23:51:39.738Z,15.07
